createdAt,value
2018-01-05T00:00:13.257Z,12.7
2018-01-05T00:01:13.044Z,12.7
2018-01-05T00:02:10.896Z,12.7
2018-01-05T00:03:12.689Z,15.2
2018-01-05T00:04:12.514Z,15.2
2018-01-05T00:05:10.457Z,13.6
2018-01-05T00:06:10.624Z,13.6
2018-01-05T00:07:10.610Z,13.6
2018-01-05T00:08:10.643Z,13.6
2018-01-05T00:11:10.930Z,10.8
2018-01-05T00:12:12.313Z,10.8
2018-01-05T00:13:12.611Z,12.7
2018-01-05T00:14:10.654Z,12.7
2018-01-05T00:15:10.967Z,12.7
2018-01-05T00:16:11.017Z,12.7
2018-01-05T00:17:12.577Z,12.7
2018-01-05T00:18:13.014Z,14.7
2018-01-05T00:19:10.973Z,14.7
2018-01-05T00:20:13.050Z,14.7
2018-01-05T00:21:10.980Z,13.3
2018-01-05T00:22:12.744Z,13.3
2018-01-05T00:23:10.931Z,13.6
2018-01-05T00:24:10.652Z,13.6
2018-01-05T00:25:12.487Z,13.6
2018-01-05T00:26:10.706Z,16.6
2018-01-05T00:27:10.726Z,16.6
2018-01-05T00:28:10.699Z,13.0
2018-01-05T00:29:10.999Z,13.0
2018-01-05T00:31:13.088Z,14.7
2018-01-05T00:32:10.769Z,14.7
2018-01-05T00:33:12.809Z,12.5
2018-01-05T00:34:10.947Z,12.5
2018-01-05T00:35:12.600Z,12.5
2018-01-05T00:36:10.544Z,11.1
2018-01-05T00:37:11.012Z,11.1
2018-01-05T00:38:13.045Z,11.1
2018-01-05T00:39:10.948Z,11.1
2018-01-05T00:40:10.744Z,11.1
2018-01-05T00:41:10.736Z,10.8
2018-01-05T00:42:10.570Z,10.8
2018-01-05T00:43:10.583Z,10.5
2018-01-05T00:44:10.701Z,10.5
2018-01-05T00:45:10.529Z,10.5
2018-01-05T00:46:10.708Z,10.2
2018-01-05T00:47:10.738Z,10.2
2018-01-05T00:48:10.745Z,10.2
2018-01-05T00:49:10.779Z,10.0
2018-01-05T00:50:11.003Z,10.0
2018-01-05T00:51:10.976Z,9.7
2018-01-05T00:52:10.998Z,9.7
2018-01-05T00:53:10.547Z,9.7
2018-01-05T00:55:10.740Z,10.2
2018-01-05T00:56:10.757Z,11.6
2018-01-05T00:57:11.001Z,11.6
2018-01-05T00:59:10.612Z,11.6
2018-01-05T01:01:10.735Z,11.1
2018-01-05T01:02:10.980Z,11.1
2018-01-05T01:03:10.746Z,11.1
2018-01-05T01:04:10.559Z,12.5
2018-01-05T01:05:10.783Z,12.5
2018-01-05T01:06:10.772Z,11.1
2018-01-05T01:07:10.804Z,11.1
2018-01-05T01:08:10.863Z,11.1
2018-01-05T01:09:10.773Z,11.6
2018-01-05T01:10:10.632Z,11.6
2018-01-05T01:11:10.615Z,9.4
2018-01-05T01:12:10.752Z,9.4
2018-01-05T01:13:10.812Z,9.4
2018-01-05T01:14:10.778Z,9.1
2018-01-05T01:15:10.828Z,9.1
2018-01-05T01:16:11.040Z,9.1
2018-01-05T01:17:11.047Z,9.1
2018-01-05T01:19:10.781Z,9.1
2018-01-05T01:20:11.039Z,9.1
2018-01-05T01:21:10.748Z,9.1
2018-01-05T01:22:10.794Z,10.5
2018-01-05T01:23:10.617Z,10.5
2018-01-05T01:24:10.800Z,10.8
2018-01-05T01:25:10.784Z,10.8
2018-01-05T01:26:11.049Z,10.8
2018-01-05T01:27:10.815Z,12.2
2018-01-05T01:29:10.788Z,45.0
2018-01-05T01:30:11.089Z,45.0
2018-01-05T01:31:10.584Z,45.0
2018-01-05T01:32:10.864Z,9.7
2018-01-05T01:33:11.044Z,9.7
2018-01-05T01:34:10.841Z,10.5
2018-01-05T01:35:10.799Z,10.5
2018-01-05T01:36:10.813Z,10.5
2018-01-05T01:37:10.811Z,13.3
2018-01-05T01:38:10.881Z,13.3
2018-01-05T01:40:10.674Z,6.9
2018-01-05T01:41:10.788Z,6.9
2018-01-05T01:43:11.075Z,7.5
2018-01-05T01:44:10.835Z,9.4
2018-01-05T01:45:11.167Z,9.4
2018-01-05T01:46:10.823Z,9.4
2018-01-05T01:47:10.792Z,36.3
2018-01-05T01:48:10.822Z,36.3
2018-01-05T01:49:10.846Z,36.3
2018-01-05T01:50:11.033Z,8.6
2018-01-05T01:51:10.820Z,8.6
2018-01-05T01:52:11.058Z,9.7
2018-01-05T01:53:11.095Z,9.7
2018-01-05T01:54:10.867Z,9.7
2018-01-05T01:55:10.751Z,9.4
2018-01-05T01:56:10.660Z,9.4
2018-01-05T01:58:10.846Z,11.3
2018-01-05T01:59:10.701Z,11.3
2018-01-05T02:00:10.687Z,11.3
2018-01-05T02:01:11.122Z,11.3
2018-01-05T02:02:10.668Z,45.5
2018-01-05T02:03:10.657Z,45.5
2018-01-05T02:04:10.684Z,45.5
2018-01-05T02:05:10.819Z,10.2
2018-01-05T02:06:11.070Z,10.2
2018-01-05T02:07:10.724Z,10.0
2018-01-05T02:08:11.095Z,10.0
2018-01-05T02:09:11.107Z,10.0
2018-01-05T02:11:11.140Z,10.2
2018-01-05T02:12:10.917Z,16.3
2018-01-05T02:13:10.717Z,16.3
2018-01-05T02:14:11.176Z,16.3
2018-01-05T02:15:10.921Z,53.8
2018-01-05T02:16:10.894Z,53.8
2018-01-05T02:17:11.136Z,11.1
2018-01-05T02:18:10.747Z,11.1
2018-01-05T02:19:10.901Z,11.1
2018-01-05T02:20:11.182Z,10.2
2018-01-05T02:22:10.927Z,10.2
2018-01-05T02:23:10.890Z,11.1
2018-01-05T02:24:10.721Z,11.1
2018-01-05T02:25:10.903Z,11.9
2018-01-05T02:26:10.879Z,11.9
2018-01-05T02:27:10.879Z,11.9
2018-01-05T02:28:11.133Z,9.7
2018-01-05T02:29:11.221Z,9.7
2018-01-05T02:30:10.930Z,14.1
2018-01-05T02:31:10.688Z,14.1
2018-01-05T02:32:11.155Z,14.1
2018-01-05T02:33:10.924Z,10.5
2018-01-05T02:34:11.230Z,10.5
2018-01-05T02:35:10.733Z,10.5
2018-01-05T02:36:10.734Z,10.5
2018-01-05T02:37:11.144Z,10.5
2018-01-05T02:39:10.903Z,14.1
2018-01-05T02:40:11.260Z,14.1
2018-01-05T02:41:10.952Z,14.1
2018-01-05T02:42:10.722Z,14.1
2018-01-05T02:44:11.220Z,13.3
2018-01-05T02:45:11.217Z,13.3
2018-01-05T02:46:10.951Z,13.3
2018-01-05T02:47:11.167Z,13.3
2018-01-05T02:48:10.968Z,15.0
2018-01-05T02:49:10.904Z,15.0
2018-01-05T02:50:10.764Z,15.0
2018-01-05T02:51:10.808Z,10.0
2018-01-05T02:53:10.967Z,10.5
2018-01-05T02:54:10.757Z,10.5
2018-01-05T02:56:10.918Z,6.9
2018-01-05T02:57:10.715Z,6.9
2018-01-05T02:58:10.964Z,11.6
2018-01-05T02:59:11.037Z,11.6
2018-01-05T03:00:10.973Z,11.6
2018-01-05T03:01:10.949Z,9.1
2018-01-05T03:02:10.805Z,9.1
2018-01-05T03:03:10.983Z,10.5
2018-01-05T03:04:10.962Z,10.5
2018-01-05T03:05:10.958Z,10.5
2018-01-05T03:06:10.920Z,8.3
2018-01-05T03:07:10.989Z,8.3
2018-01-05T03:08:11.023Z,6.9
2018-01-05T03:09:10.958Z,6.9
2018-01-05T03:10:10.766Z,6.9
2018-01-05T03:11:10.961Z,6.9
2018-01-05T03:12:10.813Z,6.9
2018-01-05T03:13:11.193Z,7.5
2018-01-05T03:14:10.977Z,7.5
2018-01-05T03:15:10.950Z,7.5
2018-01-05T03:16:11.144Z,8.8
2018-01-05T03:17:10.785Z,8.8
2018-01-05T03:19:10.765Z,37.2
2018-01-05T03:20:11.200Z,37.2
2018-01-05T03:21:11.027Z,37.2
2018-01-05T03:23:11.236Z,37.2
2018-01-05T03:24:10.991Z,6.9
2018-01-05T03:25:10.977Z,6.9
2018-01-05T03:27:10.791Z,5.5
2018-01-05T03:28:11.247Z,5.5
2018-01-05T03:29:10.808Z,2.2
2018-01-05T03:30:11.319Z,2.2
2018-01-05T03:31:11.259Z,5.8
2018-01-05T03:32:11.229Z,5.8
2018-01-05T03:33:10.948Z,5.8
2018-01-05T03:34:10.986Z,4.4
2018-01-05T03:35:11.035Z,4.4
2018-01-05T03:36:11.085Z,4.4
2018-01-05T03:37:11.030Z,4.4
2018-01-05T03:38:10.791Z,4.4
2018-01-05T03:39:11.250Z,4.7
2018-01-05T03:41:26.213Z,5.5
2018-01-05T03:42:26.167Z,5.5
2018-01-05T03:43:26.413Z,5.5
2018-01-05T03:44:26.439Z,3.8
2018-01-05T03:45:25.966Z,3.8
2018-01-05T03:46:26.120Z,1.3
2018-01-05T03:47:26.429Z,1.3
2018-01-05T03:48:26.138Z,1.3
2018-01-05T03:49:26.156Z,0.0
2018-01-05T03:50:26.399Z,0.0
2018-01-05T03:51:26.400Z,0.0
2018-01-05T03:52:26.449Z,0.0
2018-01-05T03:53:26.148Z,0.0
2018-01-05T03:54:26.226Z,0.0
2018-01-05T03:55:26.419Z,0.0
2018-01-05T03:56:25.974Z,0.0
2018-01-05T03:57:26.128Z,0.0
2018-01-05T03:58:26.208Z,0.0
2018-01-05T03:59:26.174Z,0.0
2018-01-05T04:00:26.165Z,0.0
2018-01-05T04:01:26.466Z,0.0
2018-01-05T04:02:26.401Z,0.0
2018-01-05T04:03:26.486Z,0.0
2018-01-05T04:04:26.243Z,1.3
2018-01-05T04:05:26.452Z,1.3
2018-01-05T04:06:26.461Z,1.3
2018-01-05T04:07:26.166Z,0.0
2018-01-05T04:08:31.486Z,0.0
2018-01-05T04:09:26.253Z,0.0
2018-01-05T04:10:26.217Z,0.0
2018-01-05T04:11:26.220Z,0.0
2018-01-05T04:12:26.205Z,0.0
2018-01-05T04:13:26.452Z,0.0
2018-01-05T04:14:26.464Z,0.0
2018-01-05T04:15:26.224Z,0.0
2018-01-05T04:16:26.462Z,0.0
2018-01-05T04:17:26.207Z,0.0
2018-01-05T04:18:26.026Z,0.0
2018-01-05T04:19:26.025Z,0.0
2018-01-05T04:20:26.332Z,0.0
2018-01-05T04:21:26.449Z,0.0
2018-01-05T04:22:26.208Z,0.0
2018-01-05T04:23:26.009Z,0.0
2018-01-05T04:24:26.134Z,0.0
2018-01-05T04:25:26.070Z,0.0
2018-01-05T04:26:26.052Z,0.0
2018-01-05T04:27:26.508Z,0.0
2018-01-05T04:28:26.483Z,0.0
2018-01-05T04:29:26.202Z,0.0
2018-01-05T04:30:26.069Z,0.0
2018-01-05T04:31:26.515Z,0.0
2018-01-05T04:32:26.276Z,0.0
2018-01-05T04:33:26.471Z,0.0
2018-01-05T04:34:26.019Z,0.0
2018-01-05T04:35:26.261Z,0.0
2018-01-05T04:36:26.493Z,0.0
2018-01-05T04:37:26.485Z,0.2
2018-01-05T04:38:26.242Z,0.2
2018-01-05T04:39:26.186Z,0.2
2018-01-05T04:40:26.241Z,0.0
2018-01-05T04:42:26.558Z,0.0
2018-01-05T04:43:26.253Z,0.0
2018-01-05T04:44:26.082Z,0.0
2018-01-05T04:45:26.317Z,0.2
2018-01-05T04:46:26.534Z,0.2
2018-01-05T04:47:26.877Z,0.5
2018-01-05T04:48:26.493Z,0.5
2018-01-05T04:49:26.349Z,0.5
2018-01-05T04:50:26.491Z,0.2
2018-01-05T04:51:26.134Z,0.2
2018-01-05T04:52:26.131Z,1.1
2018-01-05T04:53:26.319Z,1.1
2018-01-05T04:54:26.195Z,1.1
2018-01-05T04:55:26.287Z,0.0
2018-01-05T04:56:26.139Z,0.0
2018-01-05T04:57:26.146Z,0.0
2018-01-05T04:58:26.339Z,0.0
2018-01-05T04:59:26.252Z,0.0
2018-01-05T05:00:26.262Z,0.0
2018-01-05T05:01:26.268Z,0.0
2018-01-05T05:02:26.546Z,0.0
2018-01-05T05:03:26.074Z,0.0
2018-01-05T05:04:26.340Z,0.0
2018-01-05T05:05:26.309Z,0.2
2018-01-05T05:06:26.102Z,0.2
2018-01-05T05:07:26.136Z,0.2
2018-01-05T05:09:27.202Z,0.0
2018-01-05T05:10:26.331Z,0.2
2018-01-05T05:11:26.317Z,0.2
2018-01-05T05:12:26.546Z,0.2
2018-01-05T05:13:26.297Z,0.2
2018-01-05T05:14:26.122Z,0.2
2018-01-05T05:15:26.540Z,0.8
2018-01-05T05:17:26.105Z,0.8
2018-01-05T05:18:26.562Z,0.8
2018-01-05T05:19:26.629Z,0.8
2018-01-05T05:20:26.535Z,0.8
2018-01-05T05:21:26.106Z,0.8
2018-01-05T05:22:26.569Z,0.8
2018-01-05T05:23:26.122Z,0.8
2018-01-05T05:24:26.357Z,0.8
2018-01-05T05:25:26.342Z,1.1
2018-01-05T05:26:26.120Z,1.1
2018-01-05T05:27:26.145Z,1.1
2018-01-05T05:28:26.310Z,1.6
2018-01-05T05:29:26.323Z,1.6
2018-01-05T05:30:26.172Z,1.3
2018-01-05T05:32:26.183Z,1.3
2018-01-05T05:33:26.355Z,0.5
2018-01-05T05:34:26.245Z,0.5
2018-01-05T05:35:26.622Z,0.2
2018-01-05T05:36:26.366Z,0.2
2018-01-05T05:37:26.146Z,0.2
2018-01-05T05:38:26.626Z,0.5
2018-01-05T05:39:26.368Z,0.5
2018-01-05T05:40:26.659Z,0.5
2018-01-05T05:41:26.138Z,0.2
2018-01-05T05:42:26.344Z,0.2
2018-01-05T05:43:26.363Z,0.0
2018-01-05T05:44:26.319Z,0.0
2018-01-05T05:45:26.317Z,0.0
2018-01-05T05:46:26.663Z,0.5
2018-01-05T05:47:26.362Z,0.5
2018-01-05T05:48:26.185Z,0.5
2018-01-05T05:49:26.380Z,0.5
2018-01-05T05:50:26.643Z,0.5
2018-01-05T05:51:26.603Z,0.2
2018-01-05T05:52:26.226Z,0.2
2018-01-05T05:53:26.398Z,1.1
2018-01-05T05:54:26.702Z,1.1
2018-01-05T05:55:26.436Z,1.1
2018-01-05T05:56:26.386Z,0.8
2018-01-05T05:57:26.407Z,0.8
2018-01-05T05:58:26.650Z,0.2
2018-01-05T05:59:26.460Z,0.2
2018-01-05T06:00:26.426Z,0.2
2018-01-05T06:01:26.407Z,0.5
2018-01-05T06:02:26.405Z,0.5
2018-01-05T06:03:26.645Z,0.5
2018-01-05T06:04:26.195Z,0.5
2018-01-05T06:05:26.441Z,0.5
2018-01-05T06:06:26.466Z,0.8
2018-01-05T06:07:26.447Z,0.8
2018-01-05T06:09:26.458Z,1.1
2018-01-05T06:10:26.919Z,1.1
2018-01-05T06:11:26.539Z,1.3
2018-01-05T06:12:26.473Z,1.3
2018-01-05T06:13:26.235Z,1.3
2018-01-05T06:14:26.489Z,1.3
2018-01-05T06:15:26.440Z,1.3
2018-01-05T06:16:26.446Z,1.6
2018-01-05T06:17:26.681Z,1.6
2018-01-05T06:18:26.442Z,1.6
2018-01-05T06:19:26.475Z,1.6
2018-01-05T06:20:26.497Z,1.6
2018-01-05T06:21:26.484Z,1.9
2018-01-05T06:22:26.801Z,1.9
2018-01-05T06:23:26.695Z,1.9
2018-01-05T06:24:26.535Z,2.2
2018-01-05T06:25:26.467Z,2.2
2018-01-05T06:26:26.433Z,1.1
2018-01-05T06:27:26.351Z,1.1
2018-01-05T06:28:26.466Z,1.1
2018-01-05T06:29:26.264Z,1.6
2018-01-05T06:30:26.666Z,1.6
2018-01-05T06:31:27.212Z,2.5
2018-01-05T06:32:26.739Z,2.5
2018-01-05T06:33:26.666Z,2.5
2018-01-05T06:34:26.492Z,3.3
2018-01-05T06:36:26.499Z,1.9
2018-01-05T06:37:26.480Z,1.9
2018-01-05T06:38:26.270Z,1.9
2018-01-05T06:39:26.506Z,1.6
2018-01-05T06:41:26.530Z,1.6
2018-01-05T06:42:26.479Z,1.6
2018-01-05T06:43:26.498Z,1.6
2018-01-05T06:44:26.548Z,1.6
2018-01-05T06:45:26.303Z,1.6
2018-01-05T06:46:26.551Z,1.6
2018-01-05T06:47:26.842Z,2.7
2018-01-05T06:48:26.580Z,2.7
2018-01-05T06:49:26.747Z,13.0
2018-01-05T06:50:26.370Z,13.0
2018-01-05T06:51:26.551Z,13.0
2018-01-05T06:52:26.538Z,3.6
2018-01-05T06:53:26.585Z,3.6
2018-01-05T06:54:26.547Z,1.9
2018-01-05T06:55:26.362Z,1.9
2018-01-05T06:56:26.534Z,1.9
2018-01-05T06:57:26.319Z,1.6
2018-01-05T06:58:26.772Z,1.6
2018-01-05T06:59:26.340Z,1.6
2018-01-05T07:00:26.563Z,1.6
2018-01-05T07:01:26.533Z,1.6
2018-01-05T07:02:26.818Z,3.0
2018-01-05T07:03:26.527Z,3.0
2018-01-05T07:04:26.564Z,1.9
2018-01-05T07:05:26.521Z,1.9
2018-01-05T07:07:26.547Z,0.5
2018-01-05T07:08:26.420Z,0.5
2018-01-05T07:09:26.545Z,0.5
2018-01-05T07:10:26.952Z,1.3
2018-01-05T07:11:27.228Z,1.3
2018-01-05T07:12:26.459Z,2.7
2018-01-05T07:13:26.671Z,2.7
2018-01-05T07:14:26.697Z,2.7
2018-01-05T07:15:26.615Z,1.3
2018-01-05T07:16:26.622Z,1.3
2018-01-05T07:17:26.429Z,1.9
2018-01-05T07:18:26.693Z,1.9
2018-01-05T07:19:26.434Z,1.9
2018-01-05T07:20:26.640Z,1.9
2018-01-05T07:21:26.987Z,1.9
2018-01-05T07:22:26.861Z,2.7
2018-01-05T07:23:26.649Z,2.7
2018-01-05T07:24:26.445Z,2.7
2018-01-05T07:25:26.478Z,2.7
2018-01-05T07:26:26.618Z,2.7
2018-01-05T07:27:26.606Z,1.9
2018-01-05T07:28:26.473Z,1.9
2018-01-05T07:29:26.584Z,1.9
2018-01-05T07:30:26.573Z,1.6
2018-01-05T07:31:26.416Z,1.6
2018-01-05T07:32:26.856Z,0.8
2018-01-05T07:33:26.612Z,0.8
2018-01-05T07:34:26.850Z,0.8
2018-01-05T07:35:26.575Z,0.2
2018-01-05T07:36:26.608Z,0.2
2018-01-05T07:37:26.438Z,1.3
2018-01-05T07:38:26.621Z,1.3
2018-01-05T07:39:26.608Z,1.3
2018-01-05T07:40:26.599Z,1.1
2018-01-05T07:41:26.407Z,1.1
2018-01-05T07:42:26.458Z,1.1
2018-01-05T07:43:26.873Z,2.5
2018-01-05T07:44:26.645Z,2.5
2018-01-05T07:45:26.400Z,1.6
2018-01-05T07:46:26.442Z,1.6
2018-01-05T07:47:26.866Z,1.6
2018-01-05T07:48:26.590Z,2.5
2018-01-05T07:49:26.428Z,2.5
2018-01-05T07:50:26.890Z,2.2
2018-01-05T07:51:26.452Z,2.2
2018-01-05T07:52:26.417Z,2.2
2018-01-05T07:53:26.659Z,1.1
2018-01-05T07:54:26.608Z,1.1
2018-01-05T07:55:26.625Z,1.3
2018-01-05T07:56:26.630Z,1.3
2018-01-05T07:57:26.430Z,1.3
2018-01-05T07:58:26.640Z,1.6
2018-01-05T07:59:26.894Z,1.6
2018-01-05T08:00:26.607Z,1.6
2018-01-05T08:01:26.657Z,1.6
2018-01-05T08:02:26.941Z,1.6
2018-01-05T08:03:26.472Z,2.5
2018-01-05T08:04:26.656Z,2.5
2018-01-05T08:05:26.648Z,2.5
2018-01-05T08:06:26.497Z,2.5
2018-01-05T08:07:26.921Z,2.5
2018-01-05T08:08:26.926Z,1.9
2018-01-05T08:09:26.646Z,1.9
2018-01-05T08:10:26.970Z,1.9
2018-01-05T08:11:26.876Z,1.1
2018-01-05T08:12:27.257Z,1.1
2018-01-05T08:13:26.453Z,0.8
2018-01-05T08:14:26.469Z,0.8
2018-01-05T08:15:26.656Z,0.8
2018-01-05T08:16:26.526Z,0.2
2018-01-05T08:17:26.665Z,0.2
2018-01-05T08:18:26.661Z,0.8
2018-01-05T08:19:26.896Z,0.8
2018-01-05T08:20:26.661Z,0.8
2018-01-05T08:21:26.705Z,1.1
2018-01-05T08:22:26.926Z,1.1
2018-01-05T08:23:26.497Z,0.2
2018-01-05T08:24:26.928Z,0.2
2018-01-05T08:25:26.448Z,0.2
2018-01-05T08:26:26.513Z,0.5
2018-01-05T08:27:26.670Z,0.5
2018-01-05T08:28:26.478Z,1.1
2018-01-05T08:29:26.679Z,1.1
2018-01-05T08:30:26.686Z,1.1
2018-01-05T08:31:26.518Z,3.0
2018-01-05T08:32:26.938Z,3.0
2018-01-05T08:33:26.949Z,2.2
2018-01-05T08:34:26.477Z,2.2
2018-01-05T08:35:26.925Z,2.2
2018-01-05T08:36:26.947Z,2.2
2018-01-05T08:37:26.706Z,2.2
2018-01-05T08:38:26.492Z,2.7
2018-01-05T08:39:26.614Z,2.7
2018-01-05T08:40:26.935Z,2.7
2018-01-05T08:41:26.695Z,1.1
2018-01-05T08:42:26.995Z,1.1
2018-01-05T08:43:26.711Z,1.1
2018-01-05T08:44:26.675Z,2.7
2018-01-05T08:45:26.948Z,2.7
2018-01-05T08:46:26.714Z,2.7
2018-01-05T08:47:26.949Z,2.7
2018-01-05T08:48:26.540Z,2.7
2018-01-05T08:49:26.699Z,1.9
2018-01-05T08:50:26.515Z,1.9
2018-01-05T08:51:26.743Z,3.3
2018-01-05T08:52:26.941Z,3.3
2018-01-05T08:53:26.787Z,3.3
2018-01-05T08:54:26.996Z,2.5
2018-01-05T08:55:26.723Z,2.5
2018-01-05T08:56:26.544Z,3.3
2018-01-05T08:57:26.763Z,3.3
2018-01-05T08:58:26.798Z,3.3
2018-01-05T08:59:26.561Z,1.1
2018-01-05T09:00:26.740Z,1.1
2018-01-05T09:01:26.515Z,1.9
2018-01-05T09:02:26.840Z,1.9
2018-01-05T09:03:26.569Z,1.9
2018-01-05T09:05:27.000Z,3.6
2018-01-05T09:06:26.717Z,3.6
2018-01-05T09:08:27.023Z,3.6
2018-01-05T09:09:26.762Z,21.3
2018-01-05T09:10:26.773Z,21.3
2018-01-05T09:11:26.779Z,21.3
2018-01-05T09:12:26.780Z,5.8
2018-01-05T09:13:27.421Z,5.8
2018-01-05T09:15:26.770Z,4.4
2018-01-05T09:16:26.835Z,4.4
2018-01-05T09:17:26.752Z,4.1
2018-01-05T09:18:26.565Z,4.1
2018-01-05T09:19:26.582Z,3.3
2018-01-05T09:20:27.029Z,3.3
2018-01-05T09:21:26.786Z,3.3
2018-01-05T09:22:26.588Z,3.6
2018-01-05T09:23:27.028Z,3.6
2018-01-05T09:24:26.790Z,4.4
2018-01-05T09:25:26.783Z,4.4
2018-01-05T09:26:26.788Z,4.4
2018-01-05T09:28:26.599Z,4.4
2018-01-05T09:29:26.810Z,3.6
2018-01-05T09:30:26.620Z,3.6
2018-01-05T09:31:26.846Z,3.6
2018-01-05T09:32:26.667Z,4.4
2018-01-05T09:33:26.815Z,4.4
2018-01-05T09:34:26.797Z,2.5
2018-01-05T09:35:26.830Z,2.5
2018-01-05T09:37:26.616Z,1.6
2018-01-05T09:38:26.839Z,1.6
2018-01-05T09:39:27.089Z,3.0
2018-01-05T09:40:27.061Z,3.0
2018-01-05T09:41:26.819Z,3.0
2018-01-05T09:42:27.079Z,3.3
2018-01-05T09:43:26.616Z,3.3
2018-01-05T09:44:26.864Z,3.3
2018-01-05T09:45:26.816Z,2.2
2018-01-05T09:46:26.848Z,2.2
2018-01-05T09:47:26.668Z,3.3
2018-01-05T09:48:27.116Z,3.3
2018-01-05T09:49:26.830Z,3.3
2018-01-05T09:50:26.616Z,3.6
2018-01-05T09:51:27.090Z,3.6
2018-01-05T09:52:26.886Z,3.0
2018-01-05T09:53:26.746Z,3.0
2018-01-05T09:54:26.823Z,3.0
2018-01-05T09:55:26.673Z,4.1
2018-01-05T09:56:26.850Z,4.1
2018-01-05T09:57:27.122Z,2.5
2018-01-05T09:58:27.105Z,2.5
2018-01-05T09:59:26.692Z,2.5
2018-01-05T10:00:26.648Z,3.8
2018-01-05T10:01:26.668Z,3.8
2018-01-05T10:02:26.899Z,0.8
2018-01-05T10:03:26.656Z,0.8
2018-01-05T10:05:26.872Z,1.1
2018-01-05T10:06:26.855Z,1.1
2018-01-05T10:07:27.118Z,1.1
2018-01-05T10:09:27.197Z,1.1
2018-01-05T10:10:26.773Z,3.3
2018-01-05T10:11:26.883Z,3.3
2018-01-05T10:12:26.938Z,3.3
2018-01-05T10:13:26.921Z,1.1
2018-01-05T10:14:27.566Z,1.1
2018-01-05T10:15:26.753Z,0.8
2018-01-05T10:16:26.828Z,0.8
2018-01-05T10:17:26.724Z,0.8
2018-01-05T10:18:26.792Z,0.0
2018-01-05T10:19:26.853Z,0.0
2018-01-05T10:20:26.743Z,1.1
2018-01-05T10:21:26.740Z,1.1
2018-01-05T10:22:26.952Z,1.1
2018-01-05T10:23:26.871Z,0.0
2018-01-05T10:24:26.709Z,0.0
2018-01-05T10:25:27.171Z,0.8
2018-01-05T10:26:26.779Z,0.8
2018-01-05T10:27:26.901Z,0.8
2018-01-05T10:28:26.791Z,2.7
2018-01-05T10:29:26.921Z,2.7
2018-01-05T10:30:27.053Z,1.9
2018-01-05T10:31:26.932Z,1.9
2018-01-05T10:32:26.987Z,1.9
2018-01-05T10:33:26.927Z,1.6
2018-01-05T10:34:26.919Z,1.6
2018-01-05T10:35:27.145Z,0.2
2018-01-05T10:36:26.975Z,0.2
2018-01-05T10:37:27.176Z,0.2
2018-01-05T10:38:26.997Z,0.0
2018-01-05T10:39:26.931Z,0.0
2018-01-05T10:40:27.155Z,0.0
2018-01-05T10:41:27.136Z,0.0
2018-01-05T10:43:28.794Z,0.5
2018-01-05T10:44:27.030Z,0.5
2018-01-05T10:45:26.959Z,0.5
2018-01-05T10:46:26.792Z,0.8
2018-01-05T10:47:26.925Z,0.8
2018-01-05T10:48:26.963Z,0.8
2018-01-05T10:49:27.040Z,0.8
2018-01-05T10:50:27.295Z,0.8
2018-01-05T10:51:26.743Z,1.9
2018-01-05T10:52:26.990Z,1.9
2018-01-05T10:53:26.950Z,1.6
2018-01-05T10:55:26.813Z,1.6
2018-01-05T10:56:26.794Z,3.6
2018-01-05T10:57:26.943Z,3.6
2018-01-05T10:58:27.253Z,2.2
2018-01-05T10:59:26.748Z,2.2
2018-01-05T11:00:27.244Z,2.2
2018-01-05T11:01:26.773Z,1.6
2018-01-05T11:02:26.818Z,1.6
2018-01-05T11:03:26.971Z,2.7
2018-01-05T11:05:26.964Z,2.7
2018-01-05T11:06:26.823Z,0.8
2018-01-05T11:07:27.290Z,0.8
2018-01-05T11:08:27.009Z,1.1
2018-01-05T11:09:27.295Z,1.1
2018-01-05T11:10:27.018Z,1.1
2018-01-05T11:11:27.069Z,0.5
2018-01-05T11:12:27.048Z,0.5
2018-01-05T11:13:26.940Z,0.5
2018-01-05T11:14:27.328Z,1.1
2018-01-05T11:15:27.169Z,1.1
2018-01-05T11:16:27.990Z,0.2
2018-01-05T11:17:27.063Z,0.2
2018-01-05T11:18:27.127Z,0.2
2018-01-05T11:19:27.344Z,1.9
2018-01-05T11:20:27.824Z,1.9
2018-01-05T11:21:34.097Z,1.6
2018-01-05T11:22:27.342Z,1.6
2018-01-05T11:23:26.982Z,1.6
2018-01-05T11:24:27.292Z,0.5
2018-01-05T11:25:26.826Z,0.5
2018-01-05T11:26:26.794Z,0.0
2018-01-05T11:27:27.023Z,0.0
2018-01-05T11:28:27.044Z,0.0
2018-01-05T11:29:27.053Z,0.0
2018-01-05T11:30:27.052Z,0.0
2018-01-05T11:31:27.251Z,0.0
2018-01-05T11:32:27.276Z,0.0
2018-01-05T11:33:26.862Z,0.0
2018-01-05T11:34:27.062Z,1.1
2018-01-05T11:35:26.817Z,1.1
2018-01-05T11:36:26.880Z,1.6
2018-01-05T11:37:27.044Z,1.6
2018-01-05T11:38:27.268Z,1.6
2018-01-05T11:39:26.868Z,0.0
2018-01-05T11:40:27.146Z,0.0
2018-01-05T11:41:27.288Z,0.2
2018-01-05T11:42:27.053Z,0.2
2018-01-05T11:43:27.040Z,0.2
2018-01-05T11:44:27.175Z,0.2
2018-01-05T11:45:27.070Z,0.2
2018-01-05T11:46:27.297Z,0.2
2018-01-05T11:47:26.808Z,1.1
2018-01-05T11:48:27.068Z,1.1
2018-01-05T11:49:27.079Z,0.2
2018-01-05T11:50:27.088Z,0.2
2018-01-05T11:51:27.380Z,0.2
2018-01-05T11:52:27.082Z,1.3
2018-01-05T11:53:27.090Z,1.3
2018-01-05T11:55:27.387Z,1.6
2018-01-05T11:56:27.112Z,1.6
2018-01-05T11:57:26.862Z,1.9
2018-01-05T11:58:27.108Z,1.9
2018-01-05T12:00:27.152Z,0.2
2018-01-05T12:03:27.087Z,0.5
2018-01-05T12:05:26.906Z,0.2
2018-01-05T12:06:27.107Z,0.2
2018-01-05T12:08:26.895Z,0.0
2018-01-05T12:09:26.920Z,0.0
2018-01-05T12:10:27.136Z,0.0
2018-01-05T12:11:27.337Z,0.0
2018-01-05T12:13:27.139Z,0.5
2018-01-05T12:14:27.166Z,0.5
2018-01-05T12:16:27.334Z,0.5
2018-01-05T12:17:27.869Z,0.2
2018-01-05T12:18:27.169Z,0.2
2018-01-05T12:20:27.092Z,0.2
2018-01-05T12:21:26.996Z,0.2
2018-01-05T12:22:27.108Z,0.2
2018-01-05T12:23:27.378Z,0.2
2018-01-05T12:24:27.124Z,0.2
2018-01-05T12:25:27.094Z,0.0
2018-01-05T12:26:27.095Z,0.0
2018-01-05T12:27:27.371Z,0.8
2018-01-05T12:28:26.928Z,0.8
2018-01-05T12:31:26.935Z,0.2
2018-01-05T12:32:26.923Z,0.5
2018-01-05T12:33:27.135Z,0.5
2018-01-05T12:34:26.911Z,0.5
2018-01-05T12:35:26.963Z,0.0
2018-01-05T12:37:27.399Z,0.0
2018-01-05T12:38:27.129Z,0.0
2018-01-05T12:39:26.944Z,0.0
2018-01-05T12:40:27.432Z,1.3
2018-01-05T12:41:27.407Z,1.3
2018-01-05T12:42:27.135Z,1.3
2018-01-05T12:43:27.195Z,0.0
2018-01-05T12:44:27.070Z,0.0
2018-01-05T12:45:27.191Z,0.0
2018-01-05T12:46:27.011Z,0.0
2018-01-05T12:47:27.411Z,0.0
2018-01-05T12:48:26.981Z,1.3
2018-01-05T12:50:26.953Z,1.3
2018-01-05T12:51:27.044Z,1.3
2018-01-05T12:52:27.015Z,1.3
2018-01-05T12:53:27.028Z,0.2
2018-01-05T12:54:27.241Z,0.2
2018-01-05T12:55:27.390Z,0.0
2018-01-05T12:56:27.213Z,0.0
2018-01-05T12:57:27.040Z,0.0
2018-01-05T12:58:27.299Z,0.0
2018-01-05T12:59:27.451Z,0.0
2018-01-05T13:01:27.192Z,0.0
2018-01-05T13:02:27.475Z,0.0
2018-01-05T13:03:27.410Z,0.0
2018-01-05T13:04:27.158Z,0.0
2018-01-05T13:05:27.184Z,0.0
2018-01-05T13:06:27.010Z,0.0
2018-01-05T13:08:27.486Z,0.2
2018-01-05T13:09:27.188Z,0.2
2018-01-05T13:11:27.187Z,0.5
2018-01-05T13:13:27.251Z,0.0
2018-01-05T13:14:27.223Z,0.0
2018-01-05T13:16:27.201Z,0.0
2018-01-05T13:17:28.067Z,0.0
2018-01-05T13:18:27.843Z,0.8
2018-01-05T13:19:27.500Z,0.8
2018-01-05T13:20:27.202Z,0.8
2018-01-05T13:21:27.237Z,0.5
2018-01-05T13:23:27.512Z,0.0
2018-01-05T13:24:27.020Z,0.0
2018-01-05T13:25:27.554Z,0.0
2018-01-05T13:26:27.236Z,0.0
2018-01-05T13:27:27.029Z,0.0
2018-01-05T13:28:27.228Z,0.0
2018-01-05T13:29:27.459Z,0.0
2018-01-05T13:30:27.223Z,0.0
2018-01-05T13:31:27.096Z,0.0
2018-01-05T13:32:27.445Z,0.0
2018-01-05T13:33:27.239Z,1.1
2018-01-05T13:34:27.236Z,1.1
2018-01-05T13:35:27.320Z,1.1
2018-01-05T13:36:27.219Z,0.5
2018-01-05T13:37:27.470Z,0.5
2018-01-05T13:38:27.045Z,1.3
2018-01-05T13:39:27.255Z,1.3
2018-01-05T13:40:27.267Z,1.3
2018-01-05T13:41:27.500Z,0.8
2018-01-05T13:42:27.308Z,0.8
2018-01-05T13:43:27.098Z,0.8
2018-01-05T13:44:27.265Z,0.5
2018-01-05T13:45:27.244Z,0.5
2018-01-05T13:46:27.255Z,0.8
2018-01-05T13:47:27.088Z,0.8
2018-01-05T13:48:27.293Z,0.8
2018-01-05T13:49:27.112Z,0.0
2018-01-05T13:50:27.033Z,0.0
2018-01-05T13:51:27.300Z,0.0
2018-01-05T13:53:27.100Z,0.0
2018-01-05T13:54:27.536Z,0.0
2018-01-05T13:55:27.274Z,0.0
2018-01-05T13:56:27.223Z,0.0
2018-01-05T13:57:27.046Z,0.0
2018-01-05T13:58:27.228Z,0.0
2018-01-05T13:59:27.618Z,0.0
2018-01-05T14:00:27.098Z,0.0
2018-01-05T14:01:27.080Z,0.0
2018-01-05T14:02:27.522Z,0.0
2018-01-05T14:03:27.320Z,0.0
2018-01-05T14:04:27.286Z,0.0
2018-01-05T14:05:27.350Z,0.0
2018-01-05T14:06:27.331Z,0.0
2018-01-05T14:07:27.106Z,0.0
2018-01-05T14:08:27.315Z,0.0
2018-01-05T14:09:27.564Z,0.0
2018-01-05T14:10:27.143Z,0.0
2018-01-05T14:11:27.462Z,0.0
2018-01-05T14:12:27.316Z,0.0
2018-01-05T14:13:27.337Z,0.0
2018-01-05T14:14:27.568Z,0.0
2018-01-05T14:15:27.314Z,0.0
2018-01-05T14:16:27.373Z,0.0
2018-01-05T14:17:27.329Z,0.0
2018-01-05T14:18:27.366Z,0.0
2018-01-05T14:19:28.221Z,0.0
2018-01-05T14:20:27.210Z,0.0
2018-01-05T14:21:27.344Z,0.0
2018-01-05T14:22:27.766Z,0.0
2018-01-05T14:23:27.458Z,0.0
2018-01-05T14:24:27.151Z,0.0
2018-01-05T14:25:27.391Z,0.0
2018-01-05T14:26:27.390Z,0.0
2018-01-05T14:27:27.381Z,0.0
2018-01-05T14:28:27.376Z,0.0
2018-01-05T14:29:27.476Z,0.0
2018-01-05T14:30:27.351Z,0.0
2018-01-05T14:31:27.367Z,0.0
2018-01-05T14:32:27.758Z,0.0
2018-01-05T14:33:27.524Z,0.0
2018-01-05T14:34:27.354Z,0.0
2018-01-05T14:35:27.655Z,0.0
2018-01-05T14:36:27.360Z,0.0
2018-01-05T14:37:27.432Z,0.0
2018-01-05T14:38:27.394Z,0.0
2018-01-05T14:39:27.419Z,0.0
2018-01-05T14:40:27.391Z,0.0